Time;durP1;ratioP1;P1;durP2;ratioP2;P2;SDS_P1;SDS_P2;PMS_P1;PMS_P2;Temp;Humidity;BMP_temperature;BMP_pressure;BME280_temperature;BME280_humidity;BME280_pressure;Samples;Min_cycle;Max_cycle;Signal;HPM_P1;HPM_P2
2021/12/01 00:00:17;;;;;;;3.33;3.00;;;3.60;93.50;;;;;;5073141;28;20568;-61
2021/12/01 00:02:44;;;;;;;3.13;2.80;;;3.60;93.60;;;;;;5074479;28;20197;-59
2021/12/01 00:05:11;;;;;;;3.30;3.10;;;3.50;93.70;;;;;;5074319;28;20570;-66
2021/12/01 00:07:39;;;;;;;3.25;3.05;;;3.40;94.20;;;;;;5074395;28;20207;-62
2021/12/01 00:10:08;;;;;;;3.20;3.10;;;3.40;94.60;;;;;;5074164;28;20228;-61
2021/12/01 00:12:35;;;;;;;4.05;3.47;;;3.30;95.10;;;;;;5074176;28;20214;-62
2021/12/01 00:15:03;;;;;;;3.70;3.50;;;3.40;95.40;;;;;;5072725;28;20318;-65
2021/12/01 00:17:30;;;;;;;3.35;3.20;;;3.30;95.30;;;;;;5074149;28;20205;-64
2021/12/01 00:19:56;;;;;;;3.80;3.60;;;3.30;95.60;;;;;;5074039;28;20205;-64
2021/12/01 00:22:23;;;;;;;4.63;4.15;;;3.20;95.60;;;;;;5073984;28;20209;-61
2021/12/01 00:24:50;;;;;;;5.25;4.95;;;3.30;95.90;;;;;;5073857;28;20485;-65
2021/12/01 00:27:18;;;;;;;5.63;5.32;;;3.30;95.90;;;;;;5074085;28;20288;-63
2021/12/01 00:29:45;;;;;;;5.70;5.50;;;3.30;95.80;;;;;;5073809;28;20739;-66
2021/12/01 00:32:12;;;;;;;5.40;5.20;;;3.30;95.60;;;;;;5072469;28;20301;-67
2021/12/01 00:34:39;;;;;;;5.68;5.43;;;3.20;95.70;;;;;;5073738;28;20264;-70
2021/12/01 00:37:06;;;;;;;5.53;5.30;;;3.20;95.80;;;;;;5073753;28;20201;-61
2021/12/01 00:39:33;;;;;;;5.40;5.20;;;3.20;96.00;;;;;;5073610;28;20236;-64
2021/12/01 00:42:00;;;;;;;6.05;5.75;;;3.20;96.00;;;;;;5073722;28;20204;-73
2021/12/01 00:44:30;;;;;;;6.45;5.40;;;3.20;95.80;;;;;;5073578;28;20237;-63
2021/12/01 00:47:05;;;;;;;5.55;5.35;;;3.20;95.90;;;;;;5072130;28;20208;-67
2021/12/01 00:49:32;;;;;;;5.63;5.32;;;3.20;95.70;;;;;;5073577;28;20204;-62
2021/12/01 00:51:59;;;;;;;5.85;5.65;;;3.20;95.70;;;;;;5073434;28;20574;-62
2021/12/01 00:54:26;;;;;;;5.85;5.65;;;3.20;95.90;;;;;;5073461;28;20238;-72
2021/12/01 00:56:54;;;;;;;5.72;5.53;;;3.20;96.00;;;;;;5073428;28;20211;-65
2021/12/01 00:59:21;;;;;;;5.90;5.70;;;3.10;95.90;;;;;;5073441;28;20208;-65
2021/12/01 01:01:49;;;;;;;5.45;5.25;;;3.10;96.10;;;;;;5072219;28;20539;-61
2021/12/01 01:04:17;;;;;;;5.70;5.40;;;3.10;95.90;;;;;;5073529;28;20214;-64
2021/12/01 01:06:43;;;;;;;5.70;5.50;;;3.10;96.10;;;;;;5073234;28;20230;-60
2021/12/01 01:09:11;;;;;;;5.55;5.35;;;3.20;95.80;;;;;;5073068;28;20207;-64
2021/12/01 01:17:19;;;;;;;6.47;6.10;;;3.20;95.20;;;;;;5071778;28;20322;-63
2021/12/01 01:19:46;;;;;;;5.85;5.60;;;3.20;95.40;;;;;;5073142;28;20207;-60
2021/12/01 01:22:13;;;;;;;6.65;6.15;;;3.20;95.50;;;;;;5073145;28;20196;-60
2021/12/01 01:24:40;;;;;;;6.30;5.70;;;3.30;95.50;;;;;;5073063;28;20211;-61
2021/12/01 01:27:07;;;;;;;6.30;6.00;;;3.30;95.30;;;;;;5073130;28;20211;-62
2021/12/01 01:29:36;;;;;;;6.20;5.80;;;3.30;95.20;;;;;;5072849;28;20211;-61
2021/12/01 01:32:04;;;;;;;6.45;6.15;;;3.30;95.50;;;;;;5071652;28;20295;-62
2021/12/01 01:34:32;;;;;;;6.72;6.32;;;3.40;95.10;;;;;;5072913;28;20311;-61
2021/12/01 01:36:59;;;;;;;6.25;5.95;;;3.40;95.00;;;;;;5072980;28;20209;-62
2021/12/01 01:39:26;;;;;;;6.50;6.20;;;3.50;95.00;;;;;;5072881;28;20219;-60
2021/12/01 01:41:54;;;;;;;6.60;6.30;;;3.50;94.50;;;;;;5072847;28;20207;-64
2021/12/01 01:44:21;;;;;;;6.90;6.50;;;3.40;94.60;;;;;;5072797;28;20286;-66
2021/12/01 01:46:48;;;;;;;6.78;6.38;;;3.40;95.00;;;;;;5071729;28;20565;-64
2021/12/01 01:49:18;;;;;;;7.03;6.63;;;3.40;95.20;;;;;;5072838;28;20598;-61
2021/12/01 01:51:47;;;;;;;6.78;6.20;;;3.40;95.10;;;;;;5072994;28;20537;-61
2021/12/01 01:54:15;;;;;;;6.90;6.40;;;3.40;95.00;;;;;;5072726;28;20207;-61
2021/12/01 01:56:42;;;;;;;6.72;6.32;;;3.40;95.10;;;;;;5072660;28;20197;-69
2021/12/01 01:59:10;;;;;;;6.70;6.40;;;3.40;95.10;;;;;;5075620;28;20200;-61
2021/12/01 02:01:46;;;;;;;6.78;6.38;;;3.40;95.20;;;;;;5075479;28;20560;-61
2021/12/01 02:04:15;;;;;;;6.63;6.30;;;3.40;95.10;;;;;;5076960;28;20204;-59
2021/12/01 02:06:43;;;;;;;6.68;6.28;;;3.50;95.20;;;;;;5076740;28;20261;-60
2021/12/01 02:09:11;;;;;;;6.97;6.57;;;3.50;94.60;;;;;;5076329;28;20296;-63
2021/12/01 02:11:38;;;;;;;6.07;5.78;;;3.50;94.80;;;;;;5076488;28;20569;-60
2021/12/01 02:14:06;;;;;;;6.35;5.95;;;3.50;94.70;;;;;;5076615;28;20619;-64
2021/12/01 02:16:33;;;;;;;6.45;6.15;;;3.60;94.60;;;;;;5075235;28;20228;-60
2021/12/01 02:19:00;;;;;;;6.80;6.20;;;3.60;94.60;;;;;;5076678;28;20207;-63
2021/12/01 02:21:30;;;;;;;6.72;6.38;;;3.60;94.50;;;;;;5076380;28;20239;-63
2021/12/01 02:23:59;;;;;;;6.63;6.32;;;3.60;94.40;;;;;;5076142;28;20205;-62
2021/12/01 02:26:28;;;;;;;6.45;6.15;;;3.60;94.50;;;;;;5076275;28;20197;-63
2021/12/01 02:28:59;;;;;;;6.53;6.03;;;3.60;94.30;;;;;;5076342;28;20621;-64
2021/12/01 02:31:29;;;;;;;6.55;6.25;;;3.60;94.40;;;;;;5074890;28;20201;-64
2021/12/01 02:33:56;;;;;;;5.95;5.68;;;3.70;94.10;;;;;;5076167;28;20565;-66
2021/12/01 02:36:23;;;;;;;6.47;6.10;;;3.60;94.00;;;;;;5075940;28;20235;-62
2021/12/01 02:38:52;;;;;;;6.38;6.07;;;3.60;94.00;;;;;;5076178;28;20208;-62
2021/12/01 02:41:26;;;;;;;5.93;5.70;;;3.60;94.20;;;;;;5075968;28;20206;-59
2021/12/01 02:43:54;;;;;;;6.13;5.82;;;3.60;94.00;;;;;;5075866;28;20315;-63
2021/12/01 02:46:20;;;;;;;6.35;6.05;;;3.60;93.80;;;;;;5074644;28;20217;-63
2021/12/01 02:48:47;;;;;;;6.35;6.05;;;3.60;93.80;;;;;;5075773;28;20295;-62
2021/12/01 02:51:16;;;;;;;6.13;5.82;;;3.60;94.10;;;;;;5075900;28;20296;-62
2021/12/01 02:53:43;;;;;;;6.75;6.40;;;3.70;93.90;;;;;;5075760;28;20204;-63
2021/12/01 02:56:11;;;;;;;6.47;6.18;;;3.70;93.80;;;;;;5075916;28;20232;-64
2021/12/01 02:58:40;;;;;;;6.40;6.10;;;3.80;93.40;;;;;;5075733;28;20208;-64
2021/12/01 03:01:12;;;;;;;6.68;6.35;;;3.80;93.20;;;;;;5074579;28;20686;-63
2021/12/01 03:03:40;;;;;;;6.57;6.22;;;3.80;92.90;;;;;;5075536;28;20689;-62
2021/12/01 03:06:08;;;;;;;6.57;6.28;;;3.70;92.90;;;;;;5075869;28;20321;-64
2021/12/01 03:08:36;;;;;;;6.70;6.40;;;3.80;93.40;;;;;;5075546;28;20223;-61
2021/12/01 03:11:04;;;;;;;6.60;6.30;;;3.90;93.30;;;;;;5074045;28;20232;-64
2021/12/01 03:13:33;;;;;;;6.20;5.90;;;3.90;93.30;;;;;;5075602;28;20292;-62
2021/12/01 03:16:00;;;;;;;6.20;5.90;;;3.90;93.00;;;;;;5074049;28;20238;-64
2021/12/01 03:18:27;;;;;;;6.15;5.85;;;3.90;93.00;;;;;;5075306;28;20215;-63
2021/12/01 03:20:54;;;;;;;6.22;5.93;;;3.90;92.80;;;;;;5075456;28;20208;-64
2021/12/01 03:23:22;;;;;;;6.47;6.18;;;3.90;92.90;;;;;;5075235;28;20613;-62
2021/12/01 03:25:50;;;;;;;6.07;5.88;;;3.90;93.00;;;;;;5075161;28;20244;-64
2021/12/01 03:28:17;;;;;;;6.43;5.88;;;3.90;93.10;;;;;;5075336;28;20201;-60
2021/12/01 03:30:47;;;;;;;5.80;5.55;;;3.90;93.20;;;;;;5073714;28;20204;-63
2021/12/01 03:33:20;;;;;;;6.10;5.80;;;3.90;93.20;;;;;;5075287;28;20196;-61
2021/12/01 03:35:49;;;;;;;6.10;5.80;;;3.90;93.00;;;;;;5074967;28;20236;-64
2021/12/01 03:38:16;;;;;;;5.72;5.43;;;3.90;93.10;;;;;;5074992;28;20223;-59
2021/12/01 03:40:44;;;;;;;5.78;5.50;;;3.90;93.10;;;;;;5075148;28;20573;-62
2021/12/01 03:43:11;;;;;;;6.05;5.75;;;3.90;93.20;;;;;;5074720;28;20221;-63
2021/12/01 03:45:38;;;;;;;5.55;5.25;;;4.00;93.00;;;;;;5073396;28;20211;-63
2021/12/01 03:48:06;;;;;;;5.63;5.32;;;4.00;93.00;;;;;;5074837;28;20227;-64
2021/12/01 03:50:34;;;;;;;7.07;5.40;;;4.00;93.10;;;;;;5074771;28;20211;-65
2021/12/01 03:53:01;;;;;;;5.65;5.35;;;4.00;92.70;;;;;;5074934;28;20200;-64
2021/12/01 03:55:28;;;;;;;5.55;5.25;;;4.00;93.10;;;;;;5074795;28;20323;-62
2021/12/01 03:57:55;;;;;;;5.80;5.50;;;4.10;92.70;;;;;;5074667;28;20201;-63
2021/12/01 04:00:22;;;;;;;5.20;4.90;;;4.10;93.00;;;;;;5073525;28;20211;-60
2021/12/01 04:02:49;;;;;;;5.53;5.13;;;4.20;92.50;;;;;;5074526;28;20229;-59
2021/12/01 04:05:17;;;;;;;6.00;5.60;;;4.20;92.30;;;;;;5074430;28;20247;-63
2021/12/01 04:07:44;;;;;;;5.97;5.68;;;4.30;92.30;;;;;;5074506;28;20664;-63
2021/12/01 04:10:16;;;;;;;5.90;5.60;;;4.40;92.10;;;;;;5074071;28;20228;-62
2021/12/01 04:12:45;;;;;;;5.70;5.40;;;4.40;91.70;;;;;;5074272;28;20667;-63
2021/12/01 04:15:13;;;;;;;5.75;5.45;;;4.30;92.00;;;;;;5072864;28;20232;-64
2021/12/01 04:17:42;;;;;;;6.10;5.70;;;4.30;92.00;;;;;;5074284;28;20566;-62
2021/12/01 04:20:12;;;;;;;5.68;5.38;;;4.30;92.10;;;;;;5074407;28;20205;-61
2021/12/01 04:22:41;;;;;;;5.60;5.30;;;4.40;92.10;;;;;;5073791;28;20236;-62
2021/12/01 04:25:08;;;;;;;5.40;5.10;;;4.40;91.90;;;;;;5074009;28;20200;-63
2021/12/01 04:27:35;;;;;;;4.72;4.53;;;4.50;92.10;;;;;;5074162;28;20659;-58
2021/12/01 04:30:02;;;;;;;4.45;4.25;;;4.60;91.70;;;;;;5072506;28;20200;-63
2021/12/01 04:32:29;;;;;;;4.75;4.45;;;4.70;91.40;;;;;;5073988;28;20589;-59
2021/12/01 04:34:57;;;;;;;3.78;3.58;;;4.60;90.80;;;;;;5073719;28;20220;-63
2021/12/01 04:37:24;;;;;;;4.30;4.00;;;4.60;91.00;;;;;;5073696;28;20599;-62
2021/12/01 04:39:52;;;;;;;3.80;3.60;;;4.60;91.50;;;;;;5073721;28;20216;-61
2021/12/01 04:42:19;;;;;;;3.35;2.90;;;4.60;91.20;;;;;;5073619;28;20211;-61
2021/12/01 04:44:47;;;;;;;3.58;3.38;;;4.70;90.90;;;;;;5073649;28;20224;-59
2021/12/01 04:47:17;;;;;;;3.05;2.85;;;4.60;91.20;;;;;;5072261;28;20211;-59
2021/12/01 04:49:44;;;;;;;3.20;2.90;;;4.70;91.10;;;;;;5073469;28;20262;-61
2021/12/01 04:52:12;;;;;;;3.10;2.90;;;4.70;91.10;;;;;;5073417;28;20200;-62
2021/12/01 04:54:39;;;;;;;3.42;3.13;;;4.70;90.80;;;;;;5073404;28;20604;-61
2021/12/01 04:57:08;;;;;;;3.15;2.85;;;4.70;91.10;;;;;;5073487;28;20228;-59
2021/12/01 04:59:37;;;;;;;2.33;2.13;;;4.80;90.90;;;;;;5073376;28;20201;-64
2021/12/01 05:02:04;;;;;;;2.80;2.60;;;4.90;90.60;;;;;;5072061;28;20260;-62
2021/12/01 05:04:32;;;;;;;3.05;2.80;;;4.90;89.90;;;;;;5073203;28;20204;-59
2021/12/01 05:06:59;;;;;;;2.70;2.50;;;4.90;90.10;;;;;;5073353;28;20212;-61
2021/12/01 05:09:26;;;;;;;2.53;2.40;;;4.90;89.80;;;;;;5073159;28;20243;-62
2021/12/01 05:11:53;;;;;;;2.70;2.50;;;4.90;89.90;;;;;;5073294;28;20196;-64
2021/12/01 05:14:24;;;;;;;2.13;2.03;;;4.80;90.10;;;;;;5073101;28;20660;-60
2021/12/01 05:16:50;;;;;;;2.47;2.35;;;4.90;90.00;;;;;;5071799;28;20232;-59
2021/12/01 05:19:18;;;;;;;2.78;2.60;;;4.90;89.80;;;;;;5073126;28;20207;-58
2021/12/01 05:21:44;;;;;;;2.17;2.08;;;5.00;90.00;;;;;;5073160;28;20208;-59
2021/12/01 05:24:11;;;;;;;2.50;2.40;;;5.00;89.50;;;;;;5073072;28;20627;-59
2021/12/01 05:26:39;;;;;;;2.50;2.40;;;5.00;89.20;;;;;;5073028;28;20201;-60
2021/12/01 05:29:06;;;;;;;2.60;2.40;;;5.00;89.50;;;;;;5073220;28;20201;-62
2021/12/01 05:31:35;;;;;;;2.25;2.15;;;5.10;89.20;;;;;;5071583;28;20204;-61
2021/12/01 05:34:02;;;;;;;2.92;2.72;;;5.10;88.80;;;;;;5072245;28;20271;-62
2021/12/01 05:36:29;;;;;;;2.88;2.78;;;5.10;88.50;;;;;;5072891;28;20232;-60
2021/12/01 05:38:56;;;;;;;2.70;2.60;;;5.10;88.40;;;;;;5072849;28;20204;-61
2021/12/01 05:41:23;;;;;;;4.50;2.70;;;5.10;88.60;;;;;;5072967;28;20568;-62
2021/12/01 05:43:50;;;;;;;2.53;2.40;;;5.20;88.80;;;;;;5072810;28;20658;-63
2021/12/01 05:46:17;;;;;;;2.58;2.47;;;5.20;88.50;;;;;;5071461;28;20678;-61
2021/12/01 05:48:45;;;;;;;2.40;2.30;;;5.30;87.90;;;;;;5073075;28;20651;-61
2021/12/01 05:51:12;;;;;;;2.50;2.40;;;5.30;87.70;;;;;;5072837;28;20201;-59
2021/12/01 05:53:39;;;;;;;2.92;2.83;;;5.30;87.90;;;;;;5072790;28;20205;-62
2021/12/01 05:56:06;;;;;;;2.97;2.88;;;5.50;88.20;;;;;;5072909;28;20231;-62
2021/12/01 05:58:33;;;;;;;2.88;2.78;;;5.60;87.70;;;;;;5072677;28;20209;-58
2021/12/01 06:01:00;;;;;;;3.00;2.90;;;5.70;86.90;;;;;;5071391;28;20200;-59
2021/12/01 06:03:28;;;;;;;2.78;2.58;;;5.90;86.80;;;;;;5072729;28;20205;-59
2021/12/01 06:05:56;;;;;;;3.15;2.95;;;5.80;86.00;;;;;;5072910;28;20250;-61
2021/12/01 06:08:23;;;;;;;2.35;2.25;;;5.80;86.20;;;;;;5072585;28;20201;-59
2021/12/01 06:10:50;;;;;;;2.85;2.75;;;5.70;86.30;;;;;;5072655;28;20232;-57
2021/12/01 06:13:19;;;;;;;2.80;2.70;;;5.60;86.70;;;;;;5072613;28;20235;-61
2021/12/01 06:15:48;;;;;;;3.17;2.97;;;5.60;87.00;;;;;;5071245;28;20259;-59
2021/12/01 06:18:15;;;;;;;3.10;3.00;;;5.60;86.80;;;;;;5072520;28;20205;-60
2021/12/01 06:20:42;;;;;;;3.45;3.22;;;5.50;87.10;;;;;;5072490;28;20205;-59
2021/12/01 06:23:10;;;;;;;1.88;1.63;;;5.60;86.80;;;;;;5072525;28;20201;-59
2021/12/01 06:25:37;;;;;;;2.80;2.70;;;5.60;87.30;;;;;;5072398;28;20200;-61
2021/12/01 06:28:05;;;;;;;2.88;2.78;;;5.80;86.90;;;;;;5072481;28;20304;-60
2021/12/01 06:30:34;;;;;;;2.97;2.88;;;5.80;85.90;;;;;;5071006;28;20208;-61
2021/12/01 06:33:01;;;;;;;2.60;2.50;;;5.60;86.60;;;;;;5072366;28;20207;-62
2021/12/01 06:35:28;;;;;;;2.83;2.72;;;5.60;86.80;;;;;;5072387;28;20740;-61
2021/12/01 06:37:56;;;;;;;3.20;3.10;;;5.70;87.00;;;;;;5072282;28;20239;-62
2021/12/01 06:40:25;;;;;;;3.70;3.28;;;5.70;86.90;;;;;;5072266;28;20235;-61
2021/12/01 06:42:52;;;;;;;3.85;3.55;;;5.80;87.10;;;;;;5072153;28;20221;-58
2021/12/01 06:45:19;;;;;;;3.13;3.03;;;5.80;86.90;;;;;;5073831;28;20392;-63
2021/12/01 06:47:46;;;;;;;3.17;3.08;;;5.90;86.00;;;;;;5075932;28;20204;-60
2021/12/01 06:50:14;;;;;;;2.42;2.33;;;5.90;86.10;;;;;;5075814;28;20200;-63
2021/12/01 06:52:41;;;;;;;2.50;2.40;;;5.90;85.90;;;;;;5075841;28;20201;-62
2021/12/01 06:55:10;;;;;;;3.50;3.40;;;5.90;86.00;;;;;;5075564;28;20677;-59
2021/12/01 06:57:38;;;;;;;3.40;3.30;;;5.90;85.50;;;;;;5075771;28;20315;-59
2021/12/01 07:00:08;;;;;;;3.88;3.65;;;5.90;85.00;;;;;;5074222;28;20205;-62
2021/12/01 07:02:35;;;;;;;4.00;3.80;;;5.90;85.40;;;;;;5075576;28;20580;-59
2021/12/01 07:05:01;;;;;;;3.83;3.70;;;5.90;84.80;;;;;;5075573;28;20714;-60
2021/12/01 07:07:28;;;;;;;4.22;4.03;;;5.90;85.30;;;;;;5075447;28;20622;-59
2021/12/01 07:09:55;;;;;;;4.45;4.15;;;5.90;84.60;;;;;;5075327;28;20263;-60
2021/12/01 07:12:22;;;;;;;4.03;3.83;;;5.90;84.60;;;;;;5075357;28;20291;-61
2021/12/01 07:14:51;;;;;;;4.10;3.90;;;5.90;84.50;;;;;;5075426;28;20208;-60
2021/12/01 07:17:18;;;;;;;3.75;3.65;;;6.00;84.50;;;;;;5073934;28;20229;-62
2021/12/01 07:19:45;;;;;;;3.78;3.58;;;6.00;84.40;;;;;;5075215;28;20201;-59
2021/12/01 07:22:13;;;;;;;3.17;3.08;;;6.00;84.20;;;;;;5075057;28;20219;-61
2021/12/01 07:24:40;;;;;;;3.90;3.80;;;6.00;84.00;;;;;;5075115;28;20675;-60
2021/12/01 07:27:07;;;;;;;4.10;3.80;;;6.00;84.20;;;;;;5075141;28;20207;-58
2021/12/01 07:29:35;;;;;;;3.60;3.50;;;6.00;84.10;;;;;;5075117;28;20201;-61
2021/12/01 07:32:04;;;;;;;3.75;3.65;;;6.00;83.90;;;;;;5073730;28;20223;-60
2021/12/01 07:34:31;;;;;;;3.40;3.30;;;6.00;84.30;;;;;;5074878;28;20205;-60
2021/12/01 07:36:58;;;;;;;3.35;3.15;;;6.00;83.80;;;;;;5074767;28;20582;-61
2021/12/01 07:39:25;;;;;;;2.50;2.40;;;6.10;83.90;;;;;;5074925;28;20222;-59
2021/12/01 07:41:51;;;;;;;3.20;3.10;;;6.10;84.20;;;;;;5074814;28;20221;-59
2021/12/01 07:44:18;;;;;;;3.80;3.65;;;6.20;83.90;;;;;;5074775;28;20201;-62
2021/12/01 07:46:46;;;;;;;4.22;4.03;;;6.20;83.50;;;;;;5073397;28;20292;-61
2021/12/01 07:49:14;;;;;;;3.70;3.60;;;6.30;83.20;;;;;;5074658;28;20201;-61
2021/12/01 07:51:41;;;;;;;3.90;3.80;;;6.30;83.00;;;;;;5074632;28;20208;-58
2021/12/01 07:54:08;;;;;;;4.40;4.20;;;6.30;83.50;;;;;;5074613;28;20200;-61
2021/12/01 07:56:35;;;;;;;3.25;3.15;;;6.20;83.10;;;;;;5073728;28;20239;-61
2021/12/01 07:59:02;;;;;;;3.13;3.03;;;6.20;83.30;;;;;;5074455;28;20288;-61
2021/12/01 08:01:28;;;;;;;3.33;3.22;;;6.20;83.40;;;;;;5073280;28;20235;-61
2021/12/01 08:03:55;;;;;;;3.70;3.60;;;6.20;83.60;;;;;;5074483;28;20284;-61
2021/12/01 08:06:25;;;;;;;3.75;3.55;;;6.20;83.60;;;;;;5074361;28;20292;-61
2021/12/01 08:08:52;;;;;;;3.80;3.55;;;6.20;83.70;;;;;;5074355;28;20208;-60
2021/12/01 08:11:19;;;;;;;4.10;3.90;;;6.30;83.90;;;;;;5074055;28;20264;-61
2021/12/01 08:13:45;;;;;;;4.00;3.90;;;6.30;83.60;;;;;;5074147;28;20200;-60
2021/12/01 08:16:13;;;;;;;4.15;3.90;;;6.30;83.40;;;;;;5072857;28;20211;-61
2021/12/01 08:18:40;;;;;;;2.95;2.80;;;6.40;83.60;;;;;;5073986;28;20652;-62
2021/12/01 08:21:06;;;;;;;3.70;3.60;;;6.40;83.90;;;;;;5073988;28;20204;-59
2021/12/01 08:23:35;;;;;;;4.10;4.00;;;6.40;83.70;;;;;;5074056;28;20401;-61
2021/12/01 08:26:02;;;;;;;3.88;3.78;;;6.40;84.10;;;;;;5074024;28;20207;-63
2021/12/01 08:28:28;;;;;;;2.70;2.60;;;6.40;83.70;;;;;;5073971;28;20227;-59
2021/12/01 08:30:55;;;;;;;4.10;3.90;;;6.40;83.70;;;;;;5072425;28;20200;-61
2021/12/01 08:33:22;;;;;;;3.88;3.67;;;6.50;83.90;;;;;;5073910;28;20211;-61
2021/12/01 08:35:49;;;;;;;4.30;4.10;;;6.50;83.60;;;;;;5073684;28;20200;-61
2021/12/01 08:38:16;;;;;;;4.05;3.90;;;6.50;83.70;;;;;;5073757;28;20238;-61
2021/12/01 08:40:44;;;;;;;3.90;3.80;;;6.50;84.10;;;;;;5073715;28;20579;-61
2021/12/01 08:43:11;;;;;;;4.60;4.40;;;6.60;84.00;;;;;;5073735;28;20221;-62
2021/12/01 08:45:38;;;;;;;4.50;4.40;;;6.60;84.00;;;;;;5072063;28;20628;-59
2021/12/01 08:48:05;;;;;;;3.35;3.25;;;6.60;83.90;;;;;;5073418;28;20204;-61
2021/12/01 08:50:33;;;;;;;4.22;4.10;;;6.70;83.70;;;;;;5073577;28;20226;-61
2021/12/01 08:53:01;;;;;;;4.20;4.10;;;6.70;83.40;;;;;;5073406;28;20611;-58
2021/12/01 08:55:27;;;;;;;4.45;4.35;;;6.60;83.40;;;;;;5073362;28;20197;-60
2021/12/01 08:57:56;;;;;;;3.20;3.10;;;6.60;83.90;;;;;;5073219;28;20232;-61
2021/12/01 09:00:23;;;;;;;4.80;4.60;;;6.70;83.60;;;;;;5071934;28;20270;-59
2021/12/01 09:02:50;;;;;;;4.65;4.50;;;6.70;83.60;;;;;;5073280;28;20215;-61
2021/12/01 09:05:17;;;;;;;4.22;4.10;;;6.80;83.70;;;;;;5073218;28;20291;-60
2021/12/01 09:07:44;;;;;;;4.97;4.80;;;6.80;83.00;;;;;;5072226;28;20247;-59
2021/12/01 09:10:11;;;;;;;3.92;3.83;;;6.90;83.00;;;;;;5073187;28;20228;-59
2021/12/01 09:12:41;;;;;;;4.88;4.68;;;7.00;83.10;;;;;;5073055;28;20207;-63
2021/12/01 09:15:10;;;;;;;5.07;4.97;;;7.10;82.10;;;;;;5071786;28;20207;-58
2021/12/01 09:17:37;;;;;;;3.80;3.70;;;7.20;82.00;;;;;;5073222;28;20228;-59
2021/12/01 09:20:05;;;;;;;4.20;4.10;;;7.30;81.70;;;;;;5073040;28;20196;-59
2021/12/01 09:22:32;;;;;;;4.70;4.60;;;7.50;81.50;;;;;;5072931;28;20227;-61
2021/12/01 09:24:58;;;;;;;5.32;5.00;;;7.60;81.00;;;;;;5073020;28;20201;-59
2021/12/01 09:27:25;;;;;;;4.75;4.65;;;7.60;80.10;;;;;;5072836;28;20214;-60
2021/12/01 09:29:53;;;;;;;4.40;4.20;;;7.60;80.60;;;;;;5072870;28;20204;-63
2021/12/01 09:32:21;;;;;;;5.03;4.93;;;7.50;81.10;;;;;;5071665;28;20292;-61
2021/12/01 09:34:48;;;;;;;5.50;5.30;;;7.60;80.80;;;;;;5072850;28;20211;-59
2021/12/01 09:37:16;;;;;;;5.78;5.57;;;7.60;80.70;;;;;;5072757;28;20236;-59
2021/12/01 09:39:44;;;;;;;4.78;4.68;;;7.60;80.80;;;;;;5072916;28;20208;-61
2021/12/01 09:42:11;;;;;;;5.80;5.60;;;7.60;81.00;;;;;;5072713;28;20307;-58
2021/12/01 09:44:39;;;;;;;5.90;5.70;;;7.60;81.10;;;;;;5072767;28;20205;-60
2021/12/01 09:47:07;;;;;;;5.90;5.70;;;7.60;80.50;;;;;;5071361;28;20208;-60
2021/12/01 09:49:36;;;;;;;4.30;4.20;;;7.70;81.20;;;;;;5072666;28;20714;-60
2021/12/01 09:52:04;;;;;;;5.10;5.00;;;7.70;81.10;;;;;;5072719;28;20207;-62
2021/12/01 09:54:30;;;;;;;4.28;4.07;;;7.70;80.90;;;;;;5072561;28;20207;-60
2021/12/01 09:56:57;;;;;;;5.50;5.30;;;7.80;80.90;;;;;;5072503;28;20227;-61
2021/12/01 09:59:24;;;;;;;3.53;3.42;;;7.80;81.10;;;;;;5072780;28;20642;-58
2021/12/01 10:01:51;;;;;;;5.32;5.13;;;7.80;80.90;;;;;;5071308;28;20207;-62
2021/12/01 10:04:18;;;;;;;4.65;4.50;;;7.80;80.90;;;;;;5072747;28;20571;-60
2021/12/01 10:06:46;;;;;;;5.85;5.60;;;7.90;80.70;;;;;;5072755;28;20204;-58
2021/12/01 10:09:14;;;;;;;4.47;4.28;;;7.90;80.40;;;;;;5072358;28;20236;-58
2021/12/01 10:11:42;;;;;;;5.90;5.70;;;7.90;81.10;;;;;;5072557;28;20292;-60
2021/12/01 10:14:16;;;;;;;5.90;5.70;;;7.90;80.70;;;;;;5072497;28;20197;-62
2021/12/01 10:16:43;;;;;;;5.43;5.22;;;7.90;80.70;;;;;;5071095;28;20558;-61
2021/12/01 10:19:13;;;;;;;5.75;5.55;;;7.90;80.80;;;;;;5073839;28;20201;-59
2021/12/01 10:21:42;;;;;;;5.30;5.10;;;7.90;81.00;;;;;;5076298;28;20211;-60
2021/12/01 10:24:12;;;;;;;4.53;4.43;;;8.00;80.80;;;;;;5076353;28;20220;-59
2021/12/01 10:26:41;;;;;;;5.22;5.03;;;8.00;80.10;;;;;;5076180;28;20207;-62
2021/12/01 10:29:10;;;;;;;5.57;5.35;;;7.90;80.60;;;;;;5076123;28;20221;-62
2021/12/01 10:31:39;;;;;;;4.90;4.70;;;8.00;80.50;;;;;;5074913;28;20224;-61
2021/12/01 10:34:25;;;;;;;5.30;5.10;;;8.10;80.80;;;;;;5075899;28;20207;-60
2021/12/01 10:37:08;;;;;;;5.55;5.28;;;8.10;80.20;;;;;;5075923;28;20205;-58
2021/12/01 10:39:37;;;;;;;4.60;4.50;;;8.20;80.40;;;;;;5075895;28;20648;-59
2021/12/01 10:42:05;;;;;;;5.97;5.68;;;8.20;80.00;;;;;;5075905;28;20253;-58
2021/12/01 10:44:33;;;;;;;3.60;3.50;;;8.30;80.20;;;;;;5075831;28;20292;-62
2021/12/01 10:47:08;;;;;;;6.40;6.20;;;8.30;79.90;;;;;;5074360;28;20286;-60
2021/12/01 10:49:38;;;;;;;5.68;5.47;;;8.30;79.90;;;;;;5075761;28;20227;-60
2021/12/01 10:52:06;;;;;;;5.63;5.43;;;8.40;80.10;;;;;;5075645;28;20213;-61
2021/12/01 10:54:33;;;;;;;5.53;5.32;;;8.30;79.40;;;;;;5075711;28;20590;-59
2021/12/01 10:57:22;;;;;;;5.50;5.30;;;8.40;80.10;;;;;;5075449;28;20610;-58
2021/12/01 10:59:50;;;;;;;4.25;4.15;;;8.50;80.10;;;;;;5075691;28;20201;-60
2021/12/01 11:02:19;;;;;;;5.47;5.22;;;8.50;79.40;;;;;;5074221;28;20201;-61
2021/12/01 11:04:47;;;;;;;5.60;5.40;;;8.40;79.90;;;;;;5075543;28;20211;-60
2021/12/01 11:07:31;;;;;;;5.28;5.18;;;8.40;80.30;;;;;;5075500;28;20636;-60
2021/12/01 11:10:15;;;;;;;5.40;5.20;;;8.40;80.30;;;;;;5075512;28;20236;-60
2021/12/01 11:12:46;;;;;;;5.40;5.20;;;8.40;80.50;;;;;;5075397;28;20205;-61
2021/12/01 11:15:24;;;;;;;5.30;5.10;;;8.50;80.60;;;;;;5073912;28;20204;-59
2021/12/01 11:17:52;;;;;;;5.10;4.90;;;8.50;81.20;;;;;;5075379;28;20234;-61
2021/12/01 11:20:40;;;;;;;4.53;4.32;;;8.50;81.20;;;;;;5075240;28;20205;-60
2021/12/01 11:23:20;;;;;;;3.60;3.50;;;8.50;82.70;;;;;;5075138;28;20641;-59
2021/12/01 11:25:50;;;;;;;4.25;4.05;;;8.40;83.00;;;;;;5075110;28;20209;-60
2021/12/01 11:28:20;;;;;;;3.10;3.00;;;8.40;83.70;;;;;;5074929;28;20304;-59
2021/12/01 11:30:49;;;;;;;2.90;2.80;;;8.40;82.80;;;;;;5072701;28;20204;-61
2021/12/01 11:33:18;;;;;;;3.95;3.80;;;8.40;82.80;;;;;;5074770;28;20690;-57
2021/12/01 11:35:47;;;;;;;3.35;3.25;;;8.40;82.90;;;;;;5074876;28;20204;-60
2021/12/01 11:38:15;;;;;;;3.90;3.80;;;8.50;83.30;;;;;;5074821;28;20224;-59
2021/12/01 11:40:42;;;;;;;3.40;3.30;;;8.80;82.50;;;;;;5074843;28;20312;-60
2021/12/01 11:43:11;;;;;;;3.83;3.72;;;9.30;80.90;;;;;;5074751;28;20197;-60
2021/12/01 11:45:41;;;;;;;5.00;4.80;;;9.60;79.60;;;;;;5073511;28;20211;-60
2021/12/01 11:48:12;;;;;;;4.47;4.38;;;9.80;78.40;;;;;;5074672;28;20307;-62
2021/12/01 11:50:46;;;;;;;4.90;4.70;;;9.80;79.30;;;;;;5074588;28;20240;-60
2021/12/01 11:53:21;;;;;;;4.60;4.50;;;9.80;79.30;;;;;;5074445;28;20730;-60
2021/12/01 11:55:57;;;;;;;4.90;4.70;;;9.70;79.60;;;;;;5074507;28;20200;-62
2021/12/01 11:58:48;;;;;;;3.70;3.50;;;9.60;80.40;;;;;;5074451;28;20266;-60
2021/12/01 12:01:55;;;;;;;3.40;3.28;;;9.50;79.90;;;;;;5073107;28;20707;-61
2021/12/01 12:04:28;;;;;;;4.50;4.30;;;9.40;81.30;;;;;;5074332;28;20222;-60
2021/12/01 12:07:03;;;;;;;5.00;4.80;;;9.60;80.90;;;;;;5074296;28;20201;-62
2021/12/01 12:09:30;;;;;;;3.13;2.92;;;9.40;81.50;;;;;;5074036;28;20242;-59
2021/12/01 12:12:12;;;;;;;4.30;4.10;;;9.40;81.40;;;;;;5074311;28;20211;-60
2021/12/01 12:14:48;;;;;;;4.63;4.53;;;9.80;80.30;;;;;;5074403;28;20205;-62
2021/12/01 12:17:19;;;;;;;4.68;4.47;;;10.10;80.20;;;;;;5072892;28;20228;-61
2021/12/01 12:20:02;;;;;;;4.10;3.90;;;10.00;79.80;;;;;;5074038;28;20626;-60
2021/12/01 12:22:34;;;;;;;4.57;4.38;;;9.70;80.80;;;;;;5073943;28;20197;-61
2021/12/01 12:25:02;;;;;;;4.72;4.53;;;9.60;80.80;;;;;;5073991;28;20226;-62
2021/12/01 12:27:38;;;;;;;5.00;4.80;;;9.50;81.00;;;;;;5073910;28;20730;-61
2021/12/01 12:30:13;;;;;;;3.22;3.03;;;9.60;82.10;;;;;;5072602;28;20254;-62
2021/12/01 12:32:44;;;;;;;4.25;4.15;;;9.70;80.40;;;;;;5073778;28;20681;-62
2021/12/01 12:35:13;;;;;;;4.75;4.55;;;9.30;82.20;;;;;;5073532;28;20196;-62
2021/12/01 12:37:41;;;;;;;4.43;4.22;;;9.00;82.70;;;;;;5073663;28;20205;-61
2021/12/01 12:40:13;;;;;;;4.57;4.38;;;8.80;83.80;;;;;;5073758;28;20656;-61
2021/12/01 12:43:08;;;;;;;4.47;4.20;;;8.70;84.90;;;;;;5073293;28;20208;-62
2021/12/01 12:45:36;;;;;;;3.92;3.72;;;8.60;84.70;;;;;;5071975;28;20204;-61
2021/12/01 12:48:23;;;;;;;4.00;3.90;;;8.50;85.20;;;;;;5073549;28;20215;-58
2021/12/01 12:51:13;;;;;;;3.42;3.28;;;8.40;85.90;;;;;;5073342;28;20207;-61
2021/12/01 12:54:17;;;;;;;3.75;3.60;;;8.40;85.80;;;;;;5048715;28;20673;-61
2021/12/01 12:56:54;;;;;;;3.80;3.70;;;8.40;86.30;;;;;;5073270;28;20659;-60
2021/12/01 12:59:30;;;;;;;3.50;3.30;;;8.30;86.50;;;;;;5073302;28;20327;-61
2021/12/01 13:02:31;;;;;;;3.42;3.22;;;8.10;88.20;;;;;;5072005;28;20287;-61
2021/12/01 13:05:01;;;;;;;3.55;3.30;;;8.00;88.60;;;;;;5073334;28;20210;-60
2021/12/01 13:07:45;;;;;;;3.40;3.20;;;7.90;89.50;;;;;;5073345;28;20274;-60
2021/12/01 13:10:23;;;;;;;2.40;2.30;;;7.70;90.10;;;;;;5073020;28;20342;-61
2021/12/01 13:12:53;;;;;;;2.70;2.60;;;7.70;90.30;;;;;;5073038;28;20303;-61